Latest Weather Observations for Pirlangimpi

IDD60801

Issued at 11:31 am CST Tuesday 2 March 2021 (issued every 10 minutes, with the page automatically refreshed every 10 minutes)

About weather observations | Map of weather stations | Latest weather observations for NT | Other Formats
Station Details ID: 014142 Name: PIRLANGIMPI AIRPORT Lat: -11.40 Lon: 130.42 Height: 18.3 m
Data from the previous 72 hours. | See also: Recent months at Pirlangimpi
Date/Time
CST
Temp
°C
App
Temp
°C
Dew
Point
°C
Rel
Hum
%
Delta-T
°C
Wind Press
QNH
hPa
Press
MSL
hPa
Rain since
9am
mm
Dir  Spd
km/h
Gust
km/h
Spd
kts
Gust
kts
02/11:30am 31.1 35.7 24.7 68 4.5 NW 9 17 5 9 1010.1 1010.0 0.0
02/11:00am 31.1 36.1 24.5 68 4.6 WNW 6 13 3 7 1010.3 1010.2 0.0
02/10:30am 31.0 36.1 24.9 70 4.3 WNW 7 15 4 8 1010.4 1010.3 0.0
02/10:00am 30.6 35.2 24.7 71 4.1 NW 9 13 5 7 1010.5 1010.4 0.0
02/09:30am 30.0 35.4 25.1 75 3.5 WNW 6 15 3 8 1010.4 1010.3 0.0
02/09:00am 29.3 34.8 25.3 79 2.8 NW 6 11 3 6 1010.1 1010.0 0.2
02/08:30am 28.4 34.1 25.0 82 2.4 WNW 4 6 2 3 1009.9 1009.8 0.2
02/08:00am 26.2 32.4 24.6 91 1.1 CALM 0 4 0 2 1009.5 1009.4 0.2
02/07:30am 24.6 29.5 23.7 95 0.6 N 4 6 2 3 1009.2 1009.1 0.2
02/07:00am 23.9 28.7 22.9 94 0.7 N 2 6 1 3 1008.9 1008.8 0.2
02/06:30am 23.6 27.9 22.6 94 0.7 NNE 4 6 2 3 1008.7 1008.6 0.2
02/06:00am 23.7 28.9 22.9 95 0.5 CALM 0 0 0 0 1008.5 1008.4 0.2
02/05:30am 24.1 29.1 23.2 95 0.6 NNE 2 2 1 1 1008.3 1008.2 0.2
02/05:00am 24.6 30.0 23.9 96 0.5 NE 2 4 1 2 1007.9 1007.8 0.2
02/04:30am 24.7 30.2 24.0 96 0.5 NE 2 4 1 2 1007.8 1007.7 0.2
02/04:00am 24.7 29.4 24.0 96 0.5 NE 6 7 3 4 1007.9 1007.8 0.2
02/03:30am 24.5 30.2 23.8 96 0.5 CALM 0 0 0 0 1008.0 1007.9 0.2
02/03:00am 24.4 30.0 23.5 95 0.6 CALM 0 0 0 0 1008.4 1008.3 0.2
02/02:30am 24.5 30.1 23.6 95 0.6 CALM 0 0 0 0 1008.7 1008.6 0.2
02/02:00am 24.6 30.2 23.6 94 0.7 CALM 0 0 0 0 1008.9 1008.8 0.2
02/01:30am 24.7 30.4 23.7 94 0.7 CALM 0 0 0 0 1009.3 1009.2 0.2
02/01:00am 24.9 30.6 23.7 93 0.8 CALM 0 0 0 0 1009.7 1009.6 0.2
02/12:30am 25.3 30.7 23.9 92 1.0 ESE 2 4 1 2 1010.5 1010.4 0.2
02/12:00am 25.4 31.0 23.6 90 1.2 CALM 0 0 0 0 1010.6 1010.5 0.2
 
Date/Time
CST
Temp
°C
App
Temp
°C
Dew
Point
°C
Rel
Hum
%
Delta-T
°C
Wind Press
QNH
hPa
Press
MSL
hPa
Rain since
9am
mm
Dir  Spd
km/h
Gust
km/h
Spd
kts
Gust
kts
01/11:30pm 25.4 30.3 23.6 90 1.2 SE 4 6 2 3 1010.6 1010.5 0.2
01/11:00pm 25.4 30.6 23.5 89 1.3 SE 2 6 1 3 1010.8 1010.7 0.2
01/10:30pm 25.4 30.6 23.5 89 1.3 SSE 2 4 1 2 1010.5 1010.4 0.2
01/10:00pm 25.5 30.1 23.2 87 1.6 SSE 4 7 2 4 1010.3 1010.2 0.2
01/09:30pm 25.5 30.1 23.2 87 1.6 SSE 4 7 2 4 1010.0 1009.9 0.2
01/09:00pm 25.6 30.2 23.1 86 1.7 SSE 4 6 2 3 1009.8 1009.7 0.2
01/08:30pm 25.8 31.0 23.5 87 1.6 SE 2 6 1 3 1009.3 1009.2 0.2
01/08:00pm 25.8 30.4 23.1 85 1.8 S 4 6 2 3 1009.0 1008.9 0.2
01/07:30pm 26.0 29.9 22.9 83 2.1 SE 7 15 4 8 1009.0 1008.9 0.2
01/07:00pm 26.2 29.8 23.1 83 2.1 ESE 9 15 5 8 1008.7 1008.6 0.2
01/06:30pm 26.9 30.4 22.9 79 2.7 ESE 9 15 5 8 1009.0 1008.9 0.2
01/06:00pm 29.5 35.0 24.1 72 3.8 NNE 2 7 1 4 1008.6 1008.5 0.2
01/05:30pm 30.2 35.1 24.6 72 3.9 NNW 7 13 4 7 1008.5 1008.4 0.2
01/05:00pm 30.0 34.5 24.6 73 3.8 NW 9 17 5 9 1008.4 1008.3 0.2
01/04:30pm 30.6 34.4 24.7 71 4.1 NW 13 28 7 15 1007.9 1007.8 0.2
01/04:00pm 30.9 35.1 24.8 70 4.3 NNW 11 19 6 10 1007.9 1007.8 0.2
01/03:30pm 31.1 35.3 24.7 68 4.5 NNW 11 24 6 13 1007.6 1007.5 0.2
01/03:00pm 30.0 33.6 24.4 72 3.9 NNW 13 20 7 11 1007.5 1007.4 0.2
01/02:30pm 30.2 34.3 24.6 72 3.9 NW 11 22 6 12 1008.1 1008.0 0.2
01/02:00pm 31.4 35.6 24.8 68 4.6 NW 11 22 6 12 1008.6 1008.5 0.2
01/01:30pm 31.4 35.8 24.5 67 4.8 NW 9 19 5 10 1008.8 1008.7 0.2
01/01:00pm 31.6 36.2 24.7 67 4.8 NW 9 17 5 9 1009.2 1009.1 0.2
01/12:30pm 31.9 36.5 24.7 65 5.1 NW 9 15 5 8 1009.5 1009.4 0.2
01/12:00pm 31.1 35.7 24.7 68 4.5 WNW 9 19 5 10 1009.6 1009.5 0.2
01/11:30am 31.0 35.9 24.6 68 4.5 WNW 7 13 4 7 1009.9 1009.8 0.2
01/11:00am 30.6 35.7 25.0 72 3.9 NW 7 13 4 7 1010.4 1010.3 0.2
01/10:30am 29.6 34.5 24.7 75 3.4 NW 7 11 4 6 1010.4 1010.3 0.2
01/10:00am 29.2 35.4 25.2 79 2.8 NW 2 6 1 3 1010.3 1010.2 0.0
01/09:30am 29.0 35.3 25.4 81 2.5 NW 2 4 1 2 1010.2 1010.1 0.0
01/09:00am 28.2 35.0 25.6 86 1.8 CALM 0 0 0 0 1009.8 1009.7 8.8
01/08:30am 27.5 34.1 25.3 88 1.5 CALM 0 0 0 0 1009.3 1009.2 8.8
01/08:00am 26.8 33.8 25.9 95 0.6 CALM 0 0 0 0 1008.9 1008.8 8.8
01/07:30am 25.2 31.5 24.7 97 0.3 CALM 0 0 0 0 1008.7 1008.6 8.8
01/07:00am 24.9 30.9 24.2 96 0.5 CALM 0 0 0 0 1008.5 1008.4 8.8
01/06:30am 24.8 30.3 24.1 96 0.5 NE 2 4 1 2 1008.3 1008.2 8.8
01/06:00am 24.6 30.4 23.9 96 0.5 CALM 0 0 0 0 1008.1 1008.0 8.8
01/05:30am 24.5 30.2 23.8 96 0.5 CALM 0 0 0 0 1007.9 1007.8 8.8
01/05:00am 24.6 30.4 23.9 96 0.5 CALM 0 0 0 0 1007.6 1007.5 8.8
01/04:30am 24.9 30.9 24.2 96 0.5 CALM 0 0 0 0 1007.7 1007.6 8.8
01/04:00am 25.0 31.0 24.3 96 0.5 CALM 0 0 0 0 1007.7 1007.6 8.8
01/03:30am 25.1 31.2 24.4 96 0.5 CALM 0 0 0 0 1007.9 1007.8 8.8
01/03:00am 25.1 31.2 24.4 96 0.5 CALM 0 0 0 0 1008.4 1008.3 8.8
01/02:30am 24.9 30.9 24.2 96 0.5 CALM 0 0 0 0 1008.6 1008.5 8.6
01/02:00am 24.9 30.9 24.2 96 0.5 CALM 0 0 0 0 1008.6 1008.5 8.6
01/01:30am 24.9 30.9 24.2 96 0.5 CALM 0 2 0 1 1008.7 1008.6 8.6
01/01:00am 24.9 30.7 24.0 95 0.6 CALM 0 0 0 0 1008.8 1008.7 8.6
01/12:30am 25.0 30.9 24.1 95 0.6 CALM 0 0 0 0 1009.1 1009.0 8.6
01/12:00am 25.0 30.9 24.1 95 0.6 CALM 0 2 0 1 1009.4 1009.3 8.6
 
Date/Time
CST
Temp
°C
App
Temp
°C
Dew
Point
°C
Rel
Hum
%
Delta-T
°C
Wind Press
QNH
hPa
Press
MSL
hPa
Rain since
9am
mm
Dir  Spd
km/h
Gust
km/h
Spd
kts
Gust
kts
28/11:30pm 24.9 30.7 23.9 94 0.7 CALM 0 0 0 0 1009.5 1009.4 8.6
28/11:00pm 25.0 30.1 24.0 94 0.7 SE 4 6 2 3 1009.3 1009.2 8.6
28/10:30pm 24.9 29.9 23.9 94 0.7 SE 4 6 2 3 1009.1 1009.0 8.6
28/10:00pm 24.9 30.7 24.0 95 0.6 CALM 0 2 0 1 1008.8 1008.7 8.6
28/09:30pm 24.6 30.2 23.6 94 0.7 CALM 0 4 0 2 1008.5 1008.4 8.6
28/09:00pm 24.7 30.4 23.8 95 0.6 CALM 0 0 0 0 1008.2 1008.1 8.6
28/08:30pm 24.5 30.1 23.5 94 0.7 CALM 0 0 0 0 1007.7 1007.6 8.6
28/08:00pm 24.8 30.5 23.8 94 0.7 CALM 0 0 0 0 1007.7 1007.6 8.6
28/07:30pm 24.9 30.6 23.7 93 0.8 CALM 0 4 0 2 1007.1 1007.0 8.6
28/07:00pm 25.3 30.6 23.7 91 1.1 W 2 2 1 1 1006.9 1006.8 8.6
28/06:30pm 25.5 30.7 23.6 89 1.3 WSW 2 6 1 3 1006.6 1006.5 8.6
28/06:00pm 25.2 30.1 23.6 91 1.1 SE 4 7 2 4 1006.7 1006.6 8.6
28/05:30pm 24.8 29.7 23.6 93 0.8 ESE 4 7 2 4 1007.2 1007.1 8.6
28/05:00pm 25.1 29.4 23.3 90 1.2 SSE 6 9 3 5 1007.6 1007.5 6.6
28/04:30pm 27.2 28.6 22.6 76 3.1 S 19 28 10 15 1007.0 1006.9 0.0
28/04:00pm 31.5 35.5 25.1 69 4.5 NW 13 20 7 11 1006.4 1006.3 0.0
28/03:30pm 30.4 34.5 25.2 74 3.7 NW 13 20 7 11 1006.2 1006.1 0.0
28/03:00pm 30.9 34.4 25.5 73 3.8 NW 17 26 9 14 1006.2 1006.1 0.0
28/02:30pm 31.4 36.2 25.7 71 4.1 NNW 11 22 6 12 1006.7 1006.6 0.0
28/02:00pm 31.0 35.4 25.1 71 4.2 N 11 20 6 11 1007.2 1007.1 0.0
28/01:30pm 32.1 36.6 23.6 60 5.9 NW 6 9 3 5 1007.4 1007.3 0.0
28/01:00pm 31.8 37.1 24.9 67 4.9 WNW 6 9 3 5 1007.8 1007.7 0.0
28/12:30pm 31.5 36.0 23.6 63 5.5 WNW 6 13 3 7 1008.1 1008.0 0.0
28/12:00pm 31.5 36.3 24.1 65 5.2 WSW 6 11 3 6 1008.4 1008.3 0.0
28/11:30am 31.2 36.1 23.6 64 5.3 WSW 4 6 2 3 1008.7 1008.6 0.0
28/11:00am 30.3 34.9 23.2 65 4.9 WNW 4 6 2 3 1009.2 1009.1 0.0
28/10:30am 29.8 35.2 25.1 76 3.3 NW 6 9 3 5 1009.4 1009.3 0.0
28/10:00am 29.2 34.8 25.4 80 2.7 NW 6 9 3 5 1009.3 1009.2 0.0
28/09:30am 28.4 34.7 25.4 84 2.1 WNW 2 4 1 2 1009.1 1009.0 0.0
28/09:00am 27.2 34.4 26.1 94 0.8 CALM 0 2 0 1 1008.9 1008.8 2.6
28/08:30am 26.2 32.3 25.7 97 0.4 ENE 4 6 2 3 1008.7 1008.6 2.6
28/08:00am 25.8 32.4 25.3 97 0.3 CALM 0 0 0 0 1008.4 1008.3 2.6
28/07:30am 24.7 30.7 24.2 97 0.3 CALM 0 0 0 0 1007.8 1007.7 2.6
28/07:00am 24.2 29.9 23.7 97 0.3 CALM 0 0 0 0 1007.5 1007.4 2.6
28/06:30am 23.9 29.3 23.2 96 0.5 CALM 0 0 0 0 1007.4 1007.3 2.6
28/06:00am 24.0 29.4 23.3 96 0.5 CALM 0 0 0 0 1007.2 1007.1 2.6
28/05:30am 23.9 29.3 23.2 96 0.5 CALM 0 0 0 0 1007.0 1006.9 2.6
28/05:00am 23.9 29.3 23.2 96 0.5 CALM 0 0 0 0 1006.7 1006.6 2.6
28/04:30am 23.9 29.3 23.2 96 0.5 CALM 0 0 0 0 1006.7 1006.6 2.6
28/04:00am 23.9 29.3 23.2 96 0.5 CALM 0 0 0 0 1006.4 1006.3 2.6
28/03:30am 24.1 29.6 23.4 96 0.5 CALM 0 0 0 0 1006.3 1006.2 2.6
28/03:00am 24.2 29.8 23.5 96 0.5 CALM 0 0 0 0 1006.6 1006.5 2.6
28/02:30am 24.2 29.8 23.5 96 0.5 CALM 0 0 0 0 1006.9 1006.8 2.6
28/02:00am 24.2 29.8 23.5 96 0.5 CALM 0 0 0 0 1007.0 1006.9 2.6
28/01:30am 24.2 29.8 23.5 96 0.5 CALM 0 0 0 0 1007.2 1007.1 2.6
28/01:00am 24.0 29.4 23.3 96 0.5 CALM 0 0 0 0 1007.2 1007.1 2.6
28/12:30am 24.1 29.6 23.4 96 0.5 CALM 0 0 0 0 1007.3 1007.2 2.6
28/12:00am 24.3 29.9 23.6 96 0.5 CALM 0 0 0 0 1007.6 1007.5 2.6
 
Date/Time
CST
Temp
°C
App
Temp
°C
Dew
Point
°C
Rel
Hum
%
Delta-T
°C
Wind Press
QNH
hPa
Press
MSL
hPa
Rain since
9am
mm
Dir  Spd
km/h
Gust
km/h
Spd
kts
Gust
kts
27/11:30pm 24.2 29.6 23.3 95 0.6 CALM 0 0 0 0 1007.6 1007.5 2.6
27/11:00pm 24.3 29.8 23.4 95 0.6 CALM 0 0 0 0 1007.8 1007.7 2.6
27/10:30pm 24.3 29.8 23.4 95 0.6 CALM 0 0 0 0 1007.7 1007.6 2.6
27/10:00pm 24.4 30.1 23.7 96 0.5 CALM 0 0 0 0 1007.2 1007.1 2.6
27/09:30pm 24.3 29.8 23.4 95 0.6 CALM 0 0 0 0 1006.8 1006.7 2.6
27/09:00pm 24.2 29.6 23.3 95 0.6 CALM 0 0 0 0 1006.6 1006.5 2.6
27/08:30pm 24.2 29.5 23.0 93 0.8 CALM 0 0 0 0 1006.3 1006.2 2.6
27/08:00pm 24.5 29.7 22.9 91 1.1 CALM 0 0 0 0 1005.8 1005.7 2.6
27/07:30pm 25.0 30.4 23.2 90 1.2 CALM 0 0 0 0 1005.2 1005.1 2.6
27/07:00pm 25.4 30.7 23.1 87 1.6 CALM 0 0 0 0 1005.0 1004.9 2.6
27/06:30pm 25.8 31.0 22.9 84 2.0 CALM 0 2 0 1 1004.7 1004.6 2.6
27/06:00pm 25.6 30.6 22.5 83 2.1 CALM 0 0 0 0 1004.5 1004.4 2.6
27/05:30pm 25.9 31.1 23.6 87 1.6 W 2 9 1 5 1004.5 1004.4 2.6
27/05:00pm 25.4 30.0 23.1 87 1.6 WNW 4 13 2 7 1004.4 1004.3 2.6
27/04:30pm 25.0 28.5 23.6 92 1.0 SSW 11 15 6 8 1004.7 1004.6 2.6
27/04:00pm 24.6 27.5 22.5 88 1.4 SE 11 17 6 9 1005.0 1004.9 2.0
27/03:53pm 24.9 27.1 21.8 83 2.1 ESE 13 24 7 13 1004.8 1004.7 1.4
27/03:30pm 29.9 34.7 24.5 73 3.8 N 7 15 4 8 1004.5 1004.4 0.0
27/03:00pm 30.5 35.4 25.3 74 3.7 NW 9 19 5 10 1004.4 1004.3 0.0
27/02:30pm 30.7 34.0 23.9 67 4.7 NNW 13 20 7 11 1004.7 1004.6 0.0
27/02:00pm 32.5 37.3 24.5 62 5.6 WSW 7 13 4 7 1004.9 1004.8 0.0
27/01:30pm 32.2 36.3 24.0 62 5.7 SSW 9 11 5 6 1005.5 1005.4 0.0
27/01:00pm 31.7 34.9 22.4 58 6.3 SSW 9 11 5 6 1005.7 1005.6 0.0
27/12:30pm 31.8 36.0 23.1 60 6.0 SW 6 9 3 5 1006.3 1006.2 0.0
27/12:00pm 31.1 35.2 23.2 63 5.5 SW 7 13 4 7 1006.6 1006.5 0.0

Other formats

Comma delimited format used in spreadsheet applications
http://www.bom.gov.au/fwo/IDD60801/IDD60801.94119.axf

JavaScript Object Notation format (JSON) in row-major order
http://www.bom.gov.au/fwo/IDD60801/IDD60801.94119.json

Data quality

Most of these data are generated automatically and are frequently updated. Quality checks on data are not normally performed. It is possible for incorrect values to appear. Refer to information at About Latest Weather Observations and please check the disclaimer before using these data.